Terminal Aerodrome Forecast
Issued by NWS

Home | Current Version | Previous Version | Text Only | Print | Product List | Glossary On
Versions: 1 2 3 4 5 6 7 8 9 10 11 12 13 14 15 16 17 18 19 20 21 22 23 24
000
FTUS46 KMTR 171700
TAFSFO
TAF
KSFO 171736Z 1718/1824 09004KT P6SM FEW015
     FM172000 25015KT P6SM FEW015 SCT200
     FM180400 22008KT P6SM SCT015 SCT100
     FM180700 20006KT P6SM BKN015 BKN050 PROB30 1810/1812 -RA
     FM181200 17008KT P6SM BKN020 OVC050 PROB30 1812/1820 -RA
     FM182000 24010KT P6SM SCT025 BKN050 PROB30 1820/1824 -RA=

USA.gov is the U.S. government's official web portal to all federal, state and local government web resources and services.